Thursday, August 16, 2018, 1:56 AM EDT
Back to Local

KTHV, York Airport

Location: Spring Grove, PA, United States Lat: 39.917
Local Time: 1:56 AM EDT ( 5:56 GMT) Lon: -76.883
Time Zone: US/Eastern Elev: 478 ft

Show me the last for .
Show Decoded

2018-08-16 00:53 METAR KTHV 160453Z AUTO 00000KT 10SM CLR 21/19 A3006 RMK AO2 SLP179 T02060194
                 403060183 =
2018-08-15 23:53 METAR KTHV 160353Z AUTO 00000KT 10SM CLR 22/20 A3006 RMK AO2 SLP177 T02220200 =
2018-08-15 22:53 METAR KTHV 160253Z AUTO 00000KT 10SM CLR 24/19 A3005 RMK AO2 SLP174 T02440194
                 51015 =
2018-08-15 21:53 METAR KTHV 160153Z AUTO 28003KT 10SM CLR 25/20 A3005 RMK AO2 SLP172 T02500200 =
2018-08-15 20:53 METAR KTHV 160053Z AUTO 23004KT 10SM CLR 26/20 A3003 RMK AO2 SLP166 T02610200 =
2018-08-15 19:53 METAR KTHV 152353Z AUTO 00000KT 10SM CLR 26/21 A3001 RMK AO2 SLP159 T02610206
                 10306 20261 53002 =
2018-08-15 18:53 METAR KTHV 152253Z AUTO 24003KT 10SM CLR 28/21 A2999 RMK AO2 SLP154 T02780211 =
2018-08-15 17:53 METAR KTHV 152153Z AUTO 25003KT 10SM CLR 30/19 A3000 RMK AO2 SLP156 T03000194 =
2018-08-15 16:53 METAR KTHV 152053Z AUTO 25004KT 10SM CLR 30/21 A3000 RMK AO2 SLP157 T03000206
                 55003 =
2018-08-15 15:53 METAR KTHV 151953Z AUTO 30004KT 10SM FEW050 30/20 A3000 RMK AO2 SLP156 T03000200
                 =
2018-08-15 14:53 METAR KTHV 151853Z AUTO 29006KT 10SM CLR 30/19 A3000 RMK AO2 SLP158 T03000194 =
2018-08-15 13:53 METAR KTHV 151753Z AUTO 31007KT 10SM CLR 30/19 A3001 RMK AO2 SLP160 T03000194
                 10300 20222 56004 =
2018-08-15 12:53 METAR KTHV 151653Z AUTO 30007KT 10SM FEW050 29/19 A3001 RMK AO2 SLP161 T02940194
                 =
2018-08-15 11:53 METAR KTHV 151553Z AUTO VRB04KT 10SM CLR 29/19 A3002 RMK AO2 SLP163 T02890194 =
2018-08-15 10:53 METAR KTHV 151453Z AUTO VRB06KT 10SM CLR 27/20 A3002 RMK AO2 SLP165 T02720200
                 51010 =
2018-08-15 09:53 METAR KTHV 151353Z AUTO 29006KT 10SM CLR 26/19 A3002 RMK AO2 SLP162 T02560194 =
2018-08-15 08:53 METAR KTHV 151253Z AUTO 27004KT 10SM CLR 24/19 A3000 RMK AO2 SLP158 T02390189 =
2018-08-15 07:53 METAR KTHV 151153Z AUTO VRB03KT 10SM CLR 22/19 A2999 RMK AO2 SLP155 70001
                 T02220189 10222 20183 53012 =
2018-08-15 06:53 METAR KTHV 151053Z AUTO 00000KT 9SM CLR 19/18 A2998 RMK AO2 SLP151 T01890178 =
2018-08-15 05:53 METAR KTHV 150953Z AUTO 00000KT 10SM CLR 19/18 A2996 RMK AO2 SLP146 T01890178 =
2018-08-15 04:53 METAR KTHV 150853Z AUTO 00000KT 10SM CLR 21/18 A2996 RMK AO2 SLP142 T02060178
                 53001 =
2018-08-15 03:53 METAR KTHV 150753Z AUTO 00000KT 10SM CLR 20/18 A2995 RMK AO2 SLP139 T02000178 =
2018-08-15 02:53 METAR KTHV 150653Z AUTO 00000KT 10SM CLR 21/18 A2995 RMK AO2 SLP141 T02110178 =

Support USWX by starting your Amazon purchase here.